sensor_id;sensor_type;location;lat;lon;timestamp;P1;durP1;ratioP1;P2;durP2;ratioP2
38435;SDS011;24220;48.168;14.024;2022-11-14T00:01:19;13.70;;;11.45;;
38435;SDS011;24220;48.168;14.024;2022-11-14T00:03:51;16.15;;;11.93;;
38435;SDS011;24220;48.168;14.024;2022-11-14T00:06:18;13.68;;;11.40;;
38435;SDS011;24220;48.168;14.024;2022-11-14T00:08:45;15.00;;;12.18;;
38435;SDS011;24220;48.168;14.024;2022-11-14T00:11:13;14.07;;;11.65;;
38435;SDS011;24220;48.168;14.024;2022-11-14T00:13:42;12.80;;;11.10;;
38435;SDS011;24220;48.168;14.024;2022-11-14T00:16:10;13.38;;;11.73;;
38435;SDS011;24220;48.168;14.024;2022-11-14T00:18:38;15.68;;;12.60;;
38435;SDS011;24220;48.168;14.024;2022-11-14T00:21:05;15.90;;;12.32;;
38435;SDS011;24220;48.168;14.024;2022-11-14T00:23:35;14.45;;;11.88;;
38435;SDS011;24220;48.168;14.024;2022-11-14T00:26:02;14.15;;;11.77;;
38435;SDS011;24220;48.168;14.024;2022-11-14T00:28:32;14.15;;;11.98;;
38435;SDS011;24220;48.168;14.024;2022-11-14T00:30:59;14.68;;;12.40;;
38435;SDS011;24220;48.168;14.024;2022-11-14T00:33:26;14.63;;;13.07;;
38435;SDS011;24220;48.168;14.024;2022-11-14T00:35:54;15.02;;;12.13;;
38435;SDS011;24220;48.168;14.024;2022-11-14T00:38:22;14.18;;;11.77;;
38435;SDS011;24220;48.168;14.024;2022-11-14T00:40:50;13.32;;;11.38;;
38435;SDS011;24220;48.168;14.024;2022-11-14T00:43:17;15.80;;;12.27;;
38435;SDS011;24220;48.168;14.024;2022-11-14T00:45:45;14.52;;;12.02;;
38435;SDS011;24220;48.168;14.024;2022-11-14T00:48:13;15.10;;;11.90;;
38435;SDS011;24220;48.168;14.024;2022-11-14T00:50:41;13.57;;;11.52;;
38435;SDS011;24220;48.168;14.024;2022-11-14T00:53:09;15.35;;;11.73;;
38435;SDS011;24220;48.168;14.024;2022-11-14T00:55:39;14.02;;;11.73;;
38435;SDS011;24220;48.168;14.024;2022-11-14T00:58:08;15.57;;;12.02;;
38435;SDS011;24220;48.168;14.024;2022-11-14T01:00:35;13.93;;;11.68;;
38435;SDS011;24220;48.168;14.024;2022-11-14T01:03:03;15.45;;;11.90;;
38435;SDS011;24220;48.168;14.024;2022-11-14T01:05:30;12.88;;;11.23;;
38435;SDS011;24220;48.168;14.024;2022-11-14T01:08:00;14.07;;;11.68;;
38435;SDS011;24220;48.168;14.024;2022-11-14T01:10:27;12.80;;;11.40;;
38435;SDS011;24220;48.168;14.024;2022-11-14T01:12:55;13.88;;;11.15;;
38435;SDS011;24220;48.168;14.024;2022-11-14T01:15:22;14.15;;;11.70;;
38435;SDS011;24220;48.168;14.024;2022-11-14T01:17:52;13.73;;;11.02;;
38435;SDS011;24220;48.168;14.024;2022-11-14T01:20:19;14.82;;;11.98;;
38435;SDS011;24220;48.168;14.024;2022-11-14T01:22:48;13.10;;;11.30;;
38435;SDS011;24220;48.168;14.024;2022-11-14T01:25:18;13.77;;;11.35;;
38435;SDS011;24220;48.168;14.024;2022-11-14T01:27:45;14.13;;;12.45;;
38435;SDS011;24220;48.168;14.024;2022-11-14T01:30:13;13.90;;;11.77;;
38435;SDS011;24220;48.168;14.024;2022-11-14T01:32:42;14.23;;;12.10;;
38435;SDS011;24220;48.168;14.024;2022-11-14T01:35:12;14.10;;;11.80;;
38435;SDS011;24220;48.168;14.024;2022-11-14T01:37:39;14.27;;;11.32;;
38435;SDS011;24220;48.168;14.024;2022-11-14T01:40:07;13.95;;;11.68;;
38435;SDS011;24220;48.168;14.024;2022-11-14T01:42:34;13.27;;;11.88;;
38435;SDS011;24220;48.168;14.024;2022-11-14T01:45:40;15.38;;;11.23;;
38435;SDS011;24220;48.168;14.024;2022-11-14T01:48:17;12.77;;;11.05;;
38435;SDS011;24220;48.168;14.024;2022-11-14T01:50:46;14.10;;;12.48;;
38435;SDS011;24220;48.168;14.024;2022-11-14T01:53:18;13.77;;;11.55;;
38435;SDS011;24220;48.168;14.024;2022-11-14T01:55:46;13.70;;;12.02;;
38435;SDS011;24220;48.168;14.024;2022-11-14T01:58:13;14.75;;;11.80;;
38435;SDS011;24220;48.168;14.024;2022-11-14T02:00:42;13.85;;;11.63;;
38435;SDS011;24220;48.168;14.024;2022-11-14T02:03:13;12.60;;;11.27;;
38435;SDS011;24220;48.168;14.024;2022-11-14T02:05:41;15.02;;;10.95;;
38435;SDS011;24220;48.168;14.024;2022-11-14T02:08:11;13.40;;;11.27;;
38435;SDS011;24220;48.168;14.024;2022-11-14T02:10:41;14.43;;;11.55;;
38435;SDS011;24220;48.168;14.024;2022-11-14T02:13:13;12.38;;;10.85;;
38435;SDS011;24220;48.168;14.024;2022-11-14T02:15:40;14.60;;;11.63;;
38435;SDS011;24220;48.168;14.024;2022-11-14T02:18:07;13.57;;;11.40;;
38435;SDS011;24220;48.168;14.024;2022-11-14T02:20:36;13.30;;;11.65;;
38435;SDS011;24220;48.168;14.024;2022-11-14T02:23:09;13.43;;;11.27;;
38435;SDS011;24220;48.168;14.024;2022-11-14T02:25:37;14.32;;;12.18;;
38435;SDS011;24220;48.168;14.024;2022-11-14T02:28:08;14.48;;;11.50;;
38435;SDS011;24220;48.168;14.024;2022-11-14T02:30:38;12.88;;;10.68;;
38435;SDS011;24220;48.168;14.024;2022-11-14T02:33:05;14.52;;;11.05;;
38435;SDS011;24220;48.168;14.024;2022-11-14T02:35:37;14.23;;;11.50;;
38435;SDS011;24220;48.168;14.024;2022-11-14T02:38:07;14.10;;;11.50;;
38435;SDS011;24220;48.168;14.024;2022-11-14T02:40:37;14.32;;;12.05;;
38435;SDS011;24220;48.168;14.024;2022-11-14T02:43:04;14.00;;;11.88;;
38435;SDS011;24220;48.168;14.024;2022-11-14T02:45:32;15.27;;;12.32;;
38435;SDS011;24220;48.168;14.024;2022-11-14T02:47:59;14.52;;;12.32;;
38435;SDS011;24220;48.168;14.024;2022-11-14T02:50:29;15.23;;;12.88;;
38435;SDS011;24220;48.168;14.024;2022-11-14T02:52:56;16.05;;;11.10;;
38435;SDS011;24220;48.168;14.024;2022-11-14T02:55:23;14.73;;;12.15;;
38435;SDS011;24220;48.168;14.024;2022-11-14T02:57:51;16.42;;;13.13;;
38435;SDS011;24220;48.168;14.024;2022-11-14T03:00:18;14.40;;;12.85;;
38435;SDS011;24220;48.168;14.024;2022-11-14T03:02:45;16.30;;;12.75;;
38435;SDS011;24220;48.168;14.024;2022-11-14T03:05:13;16.05;;;12.70;;
38435;SDS011;24220;48.168;14.024;2022-11-14T03:07:40;16.95;;;12.45;;
38435;SDS011;24220;48.168;14.024;2022-11-14T03:10:07;14.93;;;12.30;;
38435;SDS011;24220;48.168;14.024;2022-11-14T03:12:35;14.77;;;11.80;;
38435;SDS011;24220;48.168;14.024;2022-11-14T03:15:04;14.25;;;12.43;;
38435;SDS011;24220;48.168;14.024;2022-11-14T03:17:33;14.80;;;12.38;;
38435;SDS011;24220;48.168;14.024;2022-11-14T03:20:00;16.27;;;12.57;;
38435;SDS011;24220;48.168;14.024;2022-11-14T03:22:28;15.18;;;12.00;;
38435;SDS011;24220;48.168;14.024;2022-11-14T03:24:55;16.08;;;12.60;;
38435;SDS011;24220;48.168;14.024;2022-11-14T03:27:25;15.15;;;12.15;;
38435;SDS011;24220;48.168;14.024;2022-11-14T03:29:53;14.85;;;12.40;;
38435;SDS011;24220;48.168;14.024;2022-11-14T03:32:21;14.80;;;12.05;;
38435;SDS011;24220;48.168;14.024;2022-11-14T03:34:48;14.65;;;12.63;;
38435;SDS011;24220;48.168;14.024;2022-11-14T03:37:18;15.25;;;12.48;;
38435;SDS011;24220;48.168;14.024;2022-11-14T03:39:47;15.60;;;12.60;;
38435;SDS011;24220;48.168;14.024;2022-11-14T03:42:17;16.55;;;13.15;;
38435;SDS011;24220;48.168;14.024;2022-11-14T03:44:44;17.63;;;13.38;;
38435;SDS011;24220;48.168;14.024;2022-11-14T03:47:14;16.90;;;13.55;;
38435;SDS011;24220;48.168;14.024;2022-11-14T03:49:41;16.52;;;13.88;;
38435;SDS011;24220;48.168;14.024;2022-11-14T03:52:10;17.85;;;14.13;;
38435;SDS011;24220;48.168;14.024;2022-11-14T03:54:40;16.17;;;13.40;;
38435;SDS011;24220;48.168;14.024;2022-11-14T03:57:09;17.65;;;13.85;;
38435;SDS011;24220;48.168;14.024;2022-11-14T03:59:39;20.35;;;14.20;;
38435;SDS011;24220;48.168;14.024;2022-11-14T04:02:08;20.40;;;13.63;;
38435;SDS011;24220;48.168;14.024;2022-11-14T04:04:36;17.10;;;13.55;;
38435;SDS011;24220;48.168;14.024;2022-11-14T04:07:03;17.95;;;13.93;;
38435;SDS011;24220;48.168;14.024;2022-11-14T04:09:31;16.08;;;13.68;;
38435;SDS011;24220;48.168;14.024;2022-11-14T04:11:58;15.25;;;13.27;;
38435;SDS011;24220;48.168;14.024;2022-11-14T04:14:25;19.38;;;14.35;;
38435;SDS011;24220;48.168;14.024;2022-11-14T04:16:53;17.38;;;13.80;;
38435;SDS011;24220;48.168;14.024;2022-11-14T04:19:25;17.17;;;13.90;;
38435;SDS011;24220;48.168;14.024;2022-11-14T04:21:57;17.52;;;13.70;;
38435;SDS011;24220;48.168;14.024;2022-11-14T04:26:54;15.48;;;13.02;;
38435;SDS011;24220;48.168;14.024;2022-11-14T04:29:24;16.40;;;13.05;;
38435;SDS011;24220;48.168;14.024;2022-11-14T04:31:51;16.65;;;13.90;;
38435;SDS011;24220;48.168;14.024;2022-11-14T04:34:18;16.92;;;13.35;;
38435;SDS011;24220;48.168;14.024;2022-11-14T04:36:46;17.13;;;13.68;;
38435;SDS011;24220;48.168;14.024;2022-11-14T04:39:17;19.42;;;13.93;;
38435;SDS011;24220;48.168;14.024;2022-11-14T04:41:44;17.50;;;13.75;;
38435;SDS011;24220;48.168;14.024;2022-11-14T04:44:14;17.27;;;13.95;;
38435;SDS011;24220;48.168;14.024;2022-11-14T04:46:41;17.83;;;14.32;;
38435;SDS011;24220;48.168;14.024;2022-11-14T04:49:11;17.08;;;13.55;;
38435;SDS011;24220;48.168;14.024;2022-11-14T04:51:38;17.45;;;13.48;;
38435;SDS011;24220;48.168;14.024;2022-11-14T04:54:05;18.25;;;13.60;;
38435;SDS011;24220;48.168;14.024;2022-11-14T04:56:33;15.88;;;13.75;;
38435;SDS011;24220;48.168;14.024;2022-11-14T04:59:00;17.85;;;14.13;;
38435;SDS011;24220;48.168;14.024;2022-11-14T05:01:27;17.05;;;13.50;;
38435;SDS011;24220;48.168;14.024;2022-11-14T05:03:55;17.80;;;13.95;;
38435;SDS011;24220;48.168;14.024;2022-11-14T05:06:22;16.75;;;14.23;;
38435;SDS011;24220;48.168;14.024;2022-11-14T05:08:52;17.67;;;14.20;;
38435;SDS011;24220;48.168;14.024;2022-11-14T05:11:19;16.27;;;13.85;;
38435;SDS011;24220;48.168;14.024;2022-11-14T05:13:54;16.20;;;12.88;;
38435;SDS011;24220;48.168;14.024;2022-11-14T05:16:21;17.08;;;13.32;;
38435;SDS011;24220;48.168;14.024;2022-11-14T05:18:49;19.20;;;14.30;;
38435;SDS011;24220;48.168;14.024;2022-11-14T05:21:19;17.30;;;14.00;;
38435;SDS011;24220;48.168;14.024;2022-11-14T05:23:46;18.13;;;14.95;;
38435;SDS011;24220;48.168;14.024;2022-11-14T05:26:17;17.27;;;13.60;;
38435;SDS011;24220;48.168;14.024;2022-11-14T05:28:47;17.60;;;14.43;;
38435;SDS011;24220;48.168;14.024;2022-11-14T05:31:14;18.95;;;14.70;;
38435;SDS011;24220;48.168;14.024;2022-11-14T05:33:45;20.30;;;15.57;;
38435;SDS011;24220;48.168;14.024;2022-11-14T05:36:13;17.80;;;13.95;;
38435;SDS011;24220;48.168;14.024;2022-11-14T05:38:42;20.20;;;14.57;;
38435;SDS011;24220;48.168;14.024;2022-11-14T05:41:11;18.58;;;14.60;;
38435;SDS011;24220;48.168;14.024;2022-11-14T05:43:43;19.15;;;14.20;;
38435;SDS011;24220;48.168;14.024;2022-11-14T05:46:11;19.48;;;14.45;;
38435;SDS011;24220;48.168;14.024;2022-11-14T05:48:40;17.77;;;14.57;;
38435;SDS011;24220;48.168;14.024;2022-11-14T05:51:12;17.77;;;14.10;;
38435;SDS011;24220;48.168;14.024;2022-11-14T05:53:40;18.27;;;13.88;;
38435;SDS011;24220;48.168;14.024;2022-11-14T05:56:09;17.52;;;13.52;;
38435;SDS011;24220;48.168;14.024;2022-11-14T05:58:38;18.67;;;14.27;;
38435;SDS011;24220;48.168;14.024;2022-11-14T06:01:11;16.30;;;13.35;;
38435;SDS011;24220;48.168;14.024;2022-11-14T06:03:43;17.63;;;13.25;;
38435;SDS011;24220;48.168;14.024;2022-11-14T06:06:13;16.70;;;14.32;;
38435;SDS011;24220;48.168;14.024;2022-11-14T06:08:47;17.20;;;13.95;;
38435;SDS011;24220;48.168;14.024;2022-11-14T06:11:16;16.83;;;13.50;;
38435;SDS011;24220;48.168;14.024;2022-11-14T06:16:17;16.52;;;12.82;;
38435;SDS011;24220;48.168;14.024;2022-11-14T06:18:45;16.95;;;12.90;;
38435;SDS011;24220;48.168;14.024;2022-11-14T06:21:16;17.48;;;13.73;;
38435;SDS011;24220;48.168;14.024;2022-11-14T06:23:45;17.67;;;13.27;;
38435;SDS011;24220;48.168;14.024;2022-11-14T06:28:50;16.92;;;13.10;;
38435;SDS011;24220;48.168;14.024;2022-11-14T06:31:19;17.85;;;14.27;;
38435;SDS011;24220;48.168;14.024;2022-11-14T06:33:48;18.17;;;14.60;;
38435;SDS011;24220;48.168;14.024;2022-11-14T06:36:16;18.27;;;13.82;;
38435;SDS011;24220;48.168;14.024;2022-11-14T06:38:44;17.80;;;14.23;;
38435;SDS011;24220;48.168;14.024;2022-11-14T06:43:43;18.05;;;13.80;;
38435;SDS011;24220;48.168;14.024;2022-11-14T06:46:15;17.52;;;13.32;;
38435;SDS011;24220;48.168;14.024;2022-11-14T06:48:46;18.30;;;13.32;;
38435;SDS011;24220;48.168;14.024;2022-11-14T06:51:15;16.50;;;14.13;;
38435;SDS011;24220;48.168;14.024;2022-11-14T06:53:45;18.10;;;14.90;;
38435;SDS011;24220;48.168;14.024;2022-11-14T06:56:15;18.70;;;14.98;;
38435;SDS011;24220;48.168;14.024;2022-11-14T06:58:47;20.90;;;15.50;;
38435;SDS011;24220;48.168;14.024;2022-11-14T07:01:18;18.88;;;14.85;;
38435;SDS011;24220;48.168;14.024;2022-11-14T07:03:53;19.17;;;13.80;;
38435;SDS011;24220;48.168;14.024;2022-11-14T07:06:24;27.08;;;15.38;;
38435;SDS011;24220;48.168;14.024;2022-11-14T07:08:52;30.48;;;15.35;;
38435;SDS011;24220;48.168;14.024;2022-11-14T07:11:22;30.02;;;16.90;;
38435;SDS011;24220;48.168;14.024;2022-11-14T07:16:30;23.20;;;14.95;;
38435;SDS011;24220;48.168;14.024;2022-11-14T07:19:04;20.27;;;14.30;;
38435;SDS011;24220;48.168;14.024;2022-11-14T07:21:33;22.20;;;15.77;;
38435;SDS011;24220;48.168;14.024;2022-11-14T07:24:00;19.58;;;14.15;;
38435;SDS011;24220;48.168;14.024;2022-11-14T07:26:28;18.67;;;14.15;;
38435;SDS011;24220;48.168;14.024;2022-11-14T07:28:58;20.52;;;14.27;;
38435;SDS011;24220;48.168;14.024;2022-11-14T07:31:28;18.77;;;14.30;;
38435;SDS011;24220;48.168;14.024;2022-11-14T07:33:58;19.80;;;14.82;;
38435;SDS011;24220;48.168;14.024;2022-11-14T07:36:26;25.45;;;15.07;;
38435;SDS011;24220;48.168;14.024;2022-11-14T07:38:54;20.25;;;15.82;;
38435;SDS011;24220;48.168;14.024;2022-11-14T07:41:24;18.40;;;14.35;;
38435;SDS011;24220;48.168;14.024;2022-11-14T07:43:53;18.38;;;14.68;;
38435;SDS011;24220;48.168;14.024;2022-11-14T07:46:21;19.75;;;14.63;;
38435;SDS011;24220;48.168;14.024;2022-11-14T07:48:48;18.63;;;13.80;;
38435;SDS011;24220;48.168;14.024;2022-11-14T07:51:16;17.95;;;14.32;;
38435;SDS011;24220;48.168;14.024;2022-11-14T07:53:50;19.42;;;15.05;;
38435;SDS011;24220;48.168;14.024;2022-11-14T07:56:20;16.25;;;13.10;;
38435;SDS011;24220;48.168;14.024;2022-11-14T07:58:51;19.42;;;14.93;;
38435;SDS011;24220;48.168;14.024;2022-11-14T08:01:18;24.23;;;16.33;;
38435;SDS011;24220;48.168;14.024;2022-11-14T08:03:48;22.30;;;16.52;;
38435;SDS011;24220;48.168;14.024;2022-11-14T08:06:16;20.80;;;15.13;;
38435;SDS011;24220;48.168;14.024;2022-11-14T08:08:45;16.58;;;13.40;;
38435;SDS011;24220;48.168;14.024;2022-11-14T08:11:12;16.67;;;13.25;;
38435;SDS011;24220;48.168;14.024;2022-11-14T08:14:00;18.67;;;13.93;;
38435;SDS011;24220;48.168;14.024;2022-11-14T08:16:27;18.40;;;14.52;;
38435;SDS011;24220;48.168;14.024;2022-11-14T08:18:54;17.33;;;14.13;;
38435;SDS011;24220;48.168;14.024;2022-11-14T08:21:21;21.20;;;14.52;;
38435;SDS011;24220;48.168;14.024;2022-11-14T08:23:49;18.58;;;13.40;;
38435;SDS011;24220;48.168;14.024;2022-11-14T08:26:18;17.45;;;14.13;;
38435;SDS011;24220;48.168;14.024;2022-11-14T08:28:46;18.52;;;14.25;;
38435;SDS011;24220;48.168;14.024;2022-11-14T08:31:17;20.27;;;15.90;;
38435;SDS011;24220;48.168;14.024;2022-11-14T08:33:45;16.55;;;13.65;;
38435;SDS011;24220;48.168;14.024;2022-11-14T08:36:12;17.20;;;14.02;;
38435;SDS011;24220;48.168;14.024;2022-11-14T08:38:39;17.00;;;13.48;;
38435;SDS011;24220;48.168;14.024;2022-11-14T08:41:07;16.35;;;13.32;;
38435;SDS011;24220;48.168;14.024;2022-11-14T08:43:34;17.23;;;13.63;;
38435;SDS011;24220;48.168;14.024;2022-11-14T08:46:02;23.58;;;13.65;;
38435;SDS011;24220;48.168;14.024;2022-11-14T08:48:30;16.25;;;13.65;;
38435;SDS011;24220;48.168;14.024;2022-11-14T08:51:03;19.67;;;12.98;;
38435;SDS011;24220;48.168;14.024;2022-11-14T08:53:31;16.42;;;12.93;;
38435;SDS011;24220;48.168;14.024;2022-11-14T08:55:59;15.45;;;12.73;;
38435;SDS011;24220;48.168;14.024;2022-11-14T08:58:29;16.67;;;13.57;;
38435;SDS011;24220;48.168;14.024;2022-11-14T09:01:00;21.58;;;16.25;;
38435;SDS011;24220;48.168;14.024;2022-11-14T09:03:32;18.73;;;14.68;;
38435;SDS011;24220;48.168;14.024;2022-11-14T09:06:00;19.30;;;14.40;;
38435;SDS011;24220;48.168;14.024;2022-11-14T09:08:31;19.63;;;14.43;;
38435;SDS011;24220;48.168;14.024;2022-11-14T09:10:59;18.10;;;15.48;;
38435;SDS011;24220;48.168;14.024;2022-11-14T09:13:32;18.15;;;14.45;;
38435;SDS011;24220;48.168;14.024;2022-11-14T09:16:03;16.45;;;13.65;;
38435;SDS011;24220;48.168;14.024;2022-11-14T09:18:30;16.75;;;14.02;;
38435;SDS011;24220;48.168;14.024;2022-11-14T09:21:01;16.30;;;13.25;;
38435;SDS011;24220;48.168;14.024;2022-11-14T09:23:32;17.58;;;13.57;;
38435;SDS011;24220;48.168;14.024;2022-11-14T09:26:04;18.80;;;13.55;;
38435;SDS011;24220;48.168;14.024;2022-11-14T09:28:33;16.90;;;13.75;;
38435;SDS011;24220;48.168;14.024;2022-11-14T09:31:05;19.52;;;13.75;;
38435;SDS011;24220;48.168;14.024;2022-11-14T09:33:35;18.90;;;14.10;;
38435;SDS011;24220;48.168;14.024;2022-11-14T09:36:03;14.82;;;12.48;;
38435;SDS011;24220;48.168;14.024;2022-11-14T09:38:33;15.77;;;13.20;;
38435;SDS011;24220;48.168;14.024;2022-11-14T09:46:23;13.65;;;11.68;;
38435;SDS011;24220;48.168;14.024;2022-11-14T09:48:56;14.38;;;12.70;;
38435;SDS011;24220;48.168;14.024;2022-11-14T09:51:33;14.93;;;12.48;;
38435;SDS011;24220;48.168;14.024;2022-11-14T09:54:12;15.68;;;12.52;;
38435;SDS011;24220;48.168;14.024;2022-11-14T09:56:47;15.85;;;13.02;;
38435;SDS011;24220;48.168;14.024;2022-11-14T09:59:14;17.67;;;12.82;;
38435;SDS011;24220;48.168;14.024;2022-11-14T10:02:30;17.60;;;12.80;;
38435;SDS011;24220;48.168;14.024;2022-11-14T10:08:13;14.65;;;12.13;;
38435;SDS011;24220;48.168;14.024;2022-11-14T10:10:58;14.95;;;12.40;;
38435;SDS011;24220;48.168;14.024;2022-11-14T10:14:23;15.60;;;12.55;;
38435;SDS011;24220;48.168;14.024;2022-11-14T10:27:27;16.23;;;13.20;;
38435;SDS011;24220;48.168;14.024;2022-11-14T10:30:11;16.58;;;12.32;;
38435;SDS011;24220;48.168;14.024;2022-11-14T10:32:59;14.82;;;12.10;;
38435;SDS011;24220;48.168;14.024;2022-11-14T10:35:59;15.55;;;12.88;;
38435;SDS011;24220;48.168;14.024;2022-11-14T10:38:42;16.55;;;12.73;;
38435;SDS011;24220;48.168;14.024;2022-11-14T10:41:16;15.38;;;12.02;;
38435;SDS011;24220;48.168;14.024;2022-11-14T10:44:04;17.38;;;12.90;;
38435;SDS011;24220;48.168;14.024;2022-11-14T10:46:40;15.55;;;12.35;;
38435;SDS011;24220;48.168;14.024;2022-11-14T10:49:19;13.50;;;11.75;;
38435;SDS011;24220;48.168;14.024;2022-11-14T10:51:50;16.17;;;11.55;;
38435;SDS011;24220;48.168;14.024;2022-11-14T10:57:26;14.98;;;11.80;;
38435;SDS011;24220;48.168;14.024;2022-11-14T10:59:54;14.52;;;12.27;;
38435;SDS011;24220;48.168;14.024;2022-11-14T11:02:22;13.70;;;11.88;;
38435;SDS011;24220;48.168;14.024;2022-11-14T11:04:49;15.38;;;12.40;;
38435;SDS011;24220;48.168;14.024;2022-11-14T11:07:17;14.55;;;12.10;;
38435;SDS011;24220;48.168;14.024;2022-11-14T11:10:18;14.80;;;11.80;;
38435;SDS011;24220;48.168;14.024;2022-11-14T11:13:10;12.38;;;10.75;;
38435;SDS011;24220;48.168;14.024;2022-11-14T11:21:09;12.70;;;10.60;;
38435;SDS011;24220;48.168;14.024;2022-11-14T11:23:51;12.93;;;11.43;;
38435;SDS011;24220;48.168;14.024;2022-11-14T11:26:26;12.68;;;10.77;;
38435;SDS011;24220;48.168;14.024;2022-11-14T11:29:03;23.45;;;17.35;;
38435;SDS011;24220;48.168;14.024;2022-11-14T11:34:26;12.70;;;10.98;;
38435;SDS011;24220;48.168;14.024;2022-11-14T11:39:50;15.45;;;12.02;;
38435;SDS011;24220;48.168;14.024;2022-11-14T11:42:24;13.35;;;11.10;;
38435;SDS011;24220;48.168;14.024;2022-11-14T11:45:14;14.23;;;10.77;;
38435;SDS011;24220;48.168;14.024;2022-11-14T11:47:50;15.32;;;10.90;;
38435;SDS011;24220;48.168;14.024;2022-11-14T11:50:25;12.02;;;9.82;;
38435;SDS011;24220;48.168;14.024;2022-11-14T11:53:06;15.48;;;11.68;;
38435;SDS011;24220;48.168;14.024;2022-11-14T11:55:50;12.70;;;10.35;;
38435;SDS011;24220;48.168;14.024;2022-11-14T11:58:25;13.98;;;11.18;;
38435;SDS011;24220;48.168;14.024;2022-11-14T12:00:58;14.38;;;11.07;;
38435;SDS011;24220;48.168;14.024;2022-11-14T12:03:25;12.73;;;10.35;;
38435;SDS011;24220;48.168;14.024;2022-11-14T12:11:29;11.63;;;8.95;;
38435;SDS011;24220;48.168;14.024;2022-11-14T12:31:26;10.07;;;7.63;;
38435;SDS011;24220;48.168;14.024;2022-11-14T12:34:01;11.15;;;7.65;;
38435;SDS011;24220;48.168;14.024;2022-11-14T12:36:43;10.00;;;6.93;;
38435;SDS011;24220;48.168;14.024;2022-11-14T12:39:22;12.05;;;6.97;;
38435;SDS011;24220;48.168;14.024;2022-11-14T12:42:01;8.70;;;6.72;;
38435;SDS011;24220;48.168;14.024;2022-11-14T12:44:32;9.20;;;7.05;;
38435;SDS011;24220;48.168;14.024;2022-11-14T12:50:26;8.18;;;6.50;;
38435;SDS011;24220;48.168;14.024;2022-11-14T13:00:15;12.32;;;6.60;;
38435;SDS011;24220;48.168;14.024;2022-11-14T13:08:21;6.93;;;5.80;;
38435;SDS011;24220;48.168;14.024;2022-11-14T13:11:31;7.25;;;5.30;;
38435;SDS011;24220;48.168;14.024;2022-11-14T13:14:31;6.22;;;5.22;;
38435;SDS011;24220;48.168;14.024;2022-11-14T13:17:36;7.15;;;5.57;;
38435;SDS011;24220;48.168;14.024;2022-11-14T13:20:26;5.85;;;5.10;;
38435;SDS011;24220;48.168;14.024;2022-11-14T13:33:47;5.97;;;4.07;;
38435;SDS011;24220;48.168;14.024;2022-11-14T13:36:29;5.75;;;4.05;;
38435;SDS011;24220;48.168;14.024;2022-11-14T13:45:35;26.92;;;13.38;;
38435;SDS011;24220;48.168;14.024;2022-11-14T13:48:21;8.85;;;6.22;;
38435;SDS011;24220;48.168;14.024;2022-11-14T13:51:06;9.82;;;4.68;;
38435;SDS011;24220;48.168;14.024;2022-11-14T13:54:01;21.55;;;4.55;;
38435;SDS011;24220;48.168;14.024;2022-11-14T14:00:00;5.55;;;3.50;;
38435;SDS011;24220;48.168;14.024;2022-11-14T14:02:47;4.90;;;3.78;;
38435;SDS011;24220;48.168;14.024;2022-11-14T14:17:16;18.25;;;5.00;;
38435;SDS011;24220;48.168;14.024;2022-11-14T14:25:33;26.23;;;6.65;;
38435;SDS011;24220;48.168;14.024;2022-11-14T14:31:15;5.68;;;4.50;;
38435;SDS011;24220;48.168;14.024;2022-11-14T14:33:49;10.98;;;4.47;;
38435;SDS011;24220;48.168;14.024;2022-11-14T14:36:24;5.78;;;4.00;;
38435;SDS011;24220;48.168;14.024;2022-11-14T14:41:51;17.83;;;4.70;;
38435;SDS011;24220;48.168;14.024;2022-11-14T14:44:22;6.28;;;4.20;;
38435;SDS011;24220;48.168;14.024;2022-11-14T14:46:50;6.03;;;4.70;;
38435;SDS011;24220;48.168;14.024;2022-11-14T14:49:19;8.80;;;4.53;;
38435;SDS011;24220;48.168;14.024;2022-11-14T14:51:52;7.53;;;4.28;;
38435;SDS011;24220;48.168;14.024;2022-11-14T14:54:27;10.30;;;4.65;;
38435;SDS011;24220;48.168;14.024;2022-11-14T14:56:56;10.98;;;6.80;;
38435;SDS011;24220;48.168;14.024;2022-11-14T14:59:29;12.63;;;9.38;;
38435;SDS011;24220;48.168;14.024;2022-11-14T15:01:58;15.65;;;10.02;;
38435;SDS011;24220;48.168;14.024;2022-11-14T15:04:26;16.02;;;9.07;;
38435;SDS011;24220;48.168;14.024;2022-11-14T15:06:55;11.73;;;7.25;;
38435;SDS011;24220;48.168;14.024;2022-11-14T15:09:24;14.02;;;6.80;;
38435;SDS011;24220;48.168;14.024;2022-11-14T15:11:55;36.35;;;7.53;;
38435;SDS011;24220;48.168;14.024;2022-11-14T15:14:25;74.32;;;10.38;;
38435;SDS011;24220;48.168;14.024;2022-11-14T15:16:55;84.72;;;12.35;;
38435;SDS011;24220;48.168;14.024;2022-11-14T15:19:26;85.20;;;12.05;;
38435;SDS011;24220;48.168;14.024;2022-11-14T15:24:28;55.78;;;9.98;;
38435;SDS011;24220;48.168;14.024;2022-11-14T15:27:01;57.28;;;10.00;;
38435;SDS011;24220;48.168;14.024;2022-11-14T15:29:32;34.20;;;7.88;;
38435;SDS011;24220;48.168;14.024;2022-11-14T15:32:00;33.20;;;8.30;;
38435;SDS011;24220;48.168;14.024;2022-11-14T15:34:33;28.58;;;8.45;;
38435;SDS011;24220;48.168;14.024;2022-11-14T15:39:36;18.23;;;7.32;;
38435;SDS011;24220;48.168;14.024;2022-11-14T15:42:12;18.98;;;7.45;;
38435;SDS011;24220;48.168;14.024;2022-11-14T15:44:49;19.42;;;8.05;;
38435;SDS011;24220;48.168;14.024;2022-11-14T15:47:26;12.52;;;7.40;;
38435;SDS011;24220;48.168;14.024;2022-11-14T15:50:18;14.55;;;7.93;;
38435;SDS011;24220;48.168;14.024;2022-11-14T15:55:26;12.15;;;7.63;;
38435;SDS011;24220;48.168;14.024;2022-11-14T15:57:56;12.68;;;8.02;;
38435;SDS011;24220;48.168;14.024;2022-11-14T16:00:52;14.80;;;7.75;;
38435;SDS011;24220;48.168;14.024;2022-11-14T16:03:23;8.70;;;7.15;;
38435;SDS011;24220;48.168;14.024;2022-11-14T16:05:50;10.18;;;8.02;;
38435;SDS011;24220;48.168;14.024;2022-11-14T16:08:17;11.55;;;8.13;;
38435;SDS011;24220;48.168;14.024;2022-11-14T16:10:47;13.52;;;8.52;;
38435;SDS011;24220;48.168;14.024;2022-11-14T16:13:14;11.40;;;8.32;;
38435;SDS011;24220;48.168;14.024;2022-11-14T16:15:42;12.73;;;9.18;;
38435;SDS011;24220;48.168;14.024;2022-11-14T16:18:09;13.85;;;8.82;;
38435;SDS011;24220;48.168;14.024;2022-11-14T16:20:37;14.07;;;9.50;;
38435;SDS011;24220;48.168;14.024;2022-11-14T16:23:05;15.55;;;9.27;;
38435;SDS011;24220;48.168;14.024;2022-11-14T16:25:32;15.45;;;9.18;;
38435;SDS011;24220;48.168;14.024;2022-11-14T16:28:00;10.82;;;8.52;;
38435;SDS011;24220;48.168;14.024;2022-11-14T16:30:30;12.25;;;8.98;;
38435;SDS011;24220;48.168;14.024;2022-11-14T16:32:57;11.18;;;8.35;;
38435;SDS011;24220;48.168;14.024;2022-11-14T16:35:29;12.00;;;8.25;;
38435;SDS011;24220;48.168;14.024;2022-11-14T16:37:57;11.40;;;8.65;;
38435;SDS011;24220;48.168;14.024;2022-11-14T16:40:25;11.73;;;8.38;;
38435;SDS011;24220;48.168;14.024;2022-11-14T16:42:57;12.75;;;8.07;;
38435;SDS011;24220;48.168;14.024;2022-11-14T16:47:52;14.80;;;8.13;;
38435;SDS011;24220;48.168;14.024;2022-11-14T16:50:19;14.00;;;7.70;;
38435;SDS011;24220;48.168;14.024;2022-11-14T16:52:49;9.48;;;7.45;;
38435;SDS011;24220;48.168;14.024;2022-11-14T16:55:16;11.43;;;7.53;;
38435;SDS011;24220;48.168;14.024;2022-11-14T16:57:44;9.68;;;7.78;;